Time;durP1;ratioP1;P1;durP2;ratioP2;P2;SDS_P1;SDS_P2;PMS_P1;PMS_P2;Temp;Humidity;BMP_temperature;BMP_pressure;BME280_temperature;BME280_humidity;BME280_pressure;Samples;Min_cycle;Max_cycle;Signal;HPM_P1;HPM_P2
2023/03/15 00:00:25;;;;;;;12.75;8.55;;;17.60;46.20;;;;;;4975138;28;20268;-81
2023/03/15 00:02:52;;;;;;;10.30;8.20;;;17.60;46.10;;;;;;4973766;28;20209;-81
2023/03/15 00:05:21;;;;;;;9.95;7.78;;;17.60;46.10;;;;;;4973462;28;20209;-81
2023/03/15 00:07:50;;;;;;;9.35;7.72;;;17.60;46.10;;;;;;4958211;28;20198;-81
2023/03/15 00:10:17;;;;;;;10.40;7.82;;;17.50;46.30;;;;;;4973542;28;20205;-81
2023/03/15 00:12:44;;;;;;;10.27;7.72;;;17.50;46.10;;;;;;4973657;28;20202;-81
2023/03/15 00:15:13;;;;;;;9.07;8.05;;;17.50;46.10;;;;;;4973380;28;20198;-81
2023/03/15 00:17:40;;;;;;;10.73;7.88;;;17.50;46.20;;;;;;4957424;28;20230;-81
2023/03/15 00:20:09;;;;;;;9.57;7.53;;;17.50;46.30;;;;;;4974919;28;20245;-81
2023/03/15 00:22:36;;;;;;;10.68;7.60;;;17.50;46.30;;;;;;4977028;28;20746;-81
2023/03/15 00:25:06;;;;;;;8.95;7.10;;;17.50;46.30;;;;;;4977059;28;20657;-81
2023/03/15 00:27:33;;;;;;;9.93;7.50;;;17.40;46.20;;;;;;4961264;28;20265;-81
2023/03/15 00:30:00;;;;;;;9.50;6.97;;;17.40;46.20;;;;;;4979741;28;20198;-81
2023/03/15 00:32:27;;;;;;;9.18;6.97;;;17.40;46.30;;;;;;4979839;28;20210;-81
2023/03/15 00:34:55;;;;;;;7.93;6.70;;;17.40;46.20;;;;;;4980431;28;20198;-81
2023/03/15 00:37:24;;;;;;;7.68;6.70;;;17.30;46.10;;;;;;4979473;28;20238;-81
2023/03/15 00:39:54;;;;;;;9.57;6.85;;;17.30;46.40;;;;;;4979130;28;20307;-81
2023/03/15 00:42:26;;;;;;;8.30;6.75;;;17.30;46.30;;;;;;4980286;28;20210;-81
2023/03/15 00:44:54;;;;;;;7.78;6.20;;;17.30;46.30;;;;;;4978745;28;20194;-81
2023/03/15 00:47:21;;;;;;;9.55;7.20;;;17.30;46.30;;;;;;4977243;28;20693;-82
2023/03/15 00:49:49;;;;;;;8.30;6.57;;;17.30;46.30;;;;;;4990928;28;20217;-82
2023/03/15 00:52:17;;;;;;;9.70;6.82;;;17.30;46.30;;;;;;4994433;28;20278;-82
2023/03/15 00:54:52;;;;;;;7.88;6.32;;;17.30;46.20;;;;;;4988855;28;20206;-82
2023/03/15 00:57:20;;;;;;;7.30;6.10;;;17.30;46.30;;;;;;4978406;28;20210;-82
2023/03/15 00:59:48;;;;;;;7.95;6.32;;;17.20;46.20;;;;;;4977847;28;20214;-82
2023/03/15 01:02:15;;;;;;;8.07;6.25;;;17.20;46.20;;;;;;4977160;28;20202;-82
2023/03/15 01:04:44;;;;;;;7.28;6.25;;;17.20;46.30;;;;;;4977326;28;20563;-82
2023/03/15 01:07:11;;;;;;;7.95;6.15;;;17.20;46.40;;;;;;4977414;28;20305;-82
2023/03/15 01:09:39;;;;;;;9.50;6.28;;;17.20;46.50;;;;;;4979523;28;20210;-82
2023/03/15 01:12:07;;;;;;;9.00;6.03;;;17.10;46.50;;;;;;4978894;28;20206;-82
2023/03/15 01:14:36;;;;;;;7.78;5.88;;;17.10;46.40;;;;;;4978615;28;20206;-82
2023/03/15 01:17:04;;;;;;;7.50;5.93;;;17.10;46.40;;;;;;4978218;28;20313;-82
2023/03/15 01:19:31;;;;;;;7.90;6.28;;;17.10;46.30;;;;;;4977667;28;20218;-82
2023/03/15 01:21:59;;;;;;;8.93;6.18;;;17.10;46.40;;;;;;4977785;28;20581;-82
2023/03/15 01:24:26;;;;;;;7.78;6.05;;;17.10;46.50;;;;;;4978493;28;20198;-82
2023/03/15 01:26:53;;;;;;;6.80;5.55;;;17.00;46.60;;;;;;4978281;28;20222;-82
2023/03/15 01:29:20;;;;;;;7.45;5.90;;;17.10;46.50;;;;;;4977720;28;20248;-82
2023/03/15 01:31:48;;;;;;;7.97;6.10;;;17.10;46.60;;;;;;4975924;28;20265;-82
2023/03/15 01:34:16;;;;;;;7.07;5.57;;;17.00;46.50;;;;;;4975836;28;20201;-82
2023/03/15 01:36:43;;;;;;;6.93;5.45;;;17.00;46.50;;;;;;4976682;28;20226;-81
2023/03/15 01:39:11;;;;;;;6.70;5.38;;;17.00;46.50;;;;;;4977726;28;20206;-81
2023/03/15 01:41:43;;;;;;;6.85;5.40;;;17.00;46.50;;;;;;4977519;28;20220;-81
2023/03/15 01:44:13;;;;;;;6.38;5.10;;;16.90;46.30;;;;;;4977256;28;20236;-81
2023/03/15 01:46:41;;;;;;;7.22;5.63;;;17.00;46.50;;;;;;4977796;28;20218;-81
2023/03/15 01:49:14;;;;;;;7.88;5.82;;;17.00;46.30;;;;;;4977835;28;20194;-81
2023/03/15 01:51:45;;;;;;;6.40;5.70;;;17.00;46.30;;;;;;4978506;28;20514;-81
2023/03/15 01:54:15;;;;;;;6.47;5.03;;;16.90;46.30;;;;;;4977359;28;20193;-81
2023/03/15 01:56:45;;;;;;;7.35;4.93;;;16.90;46.30;;;;;;4977091;28;20218;-81
2023/03/15 01:59:15;;;;;;;8.82;5.60;;;16.90;46.40;;;;;;4977878;28;20731;-81
2023/03/15 02:01:44;;;;;;;7.63;5.25;;;16.90;46.50;;;;;;4977680;28;20691;-81
2023/03/15 02:04:15;;;;;;;5.93;4.43;;;16.90;46.50;;;;;;4977202;28;20695;-81
2023/03/15 02:06:46;;;;;;;6.22;4.70;;;16.80;46.50;;;;;;4976501;28;20218;-81
2023/03/15 02:09:15;;;;;;;6.63;4.70;;;16.80;46.60;;;;;;4977891;28;20565;-81
2023/03/15 02:11:42;;;;;;;5.38;4.35;;;16.80;46.50;;;;;;4960674;28;20270;-81
2023/03/15 02:14:10;;;;;;;6.45;5.20;;;16.80;46.60;;;;;;4976135;28;20205;-81
2023/03/15 02:16:39;;;;;;;6.00;4.72;;;16.70;47.10;;;;;;4975125;28;20249;-81
2023/03/15 02:19:11;;;;;;;6.53;4.60;;;16.70;46.50;;;;;;4975365;28;20213;-82
2023/03/15 02:21:42;;;;;;;6.38;4.85;;;16.70;46.60;;;;;;4975027;28;20202;-82
2023/03/15 02:24:23;;;;;;;5.85;4.28;;;16.70;46.60;;;;;;4975114;28;20249;-82
2023/03/15 02:26:51;;;;;;;5.97;4.28;;;16.70;46.50;;;;;;4974828;28;20221;-82
2023/03/15 02:29:20;;;;;;;5.95;4.55;;;16.60;46.60;;;;;;4974672;28;20700;-82
2023/03/15 02:31:48;;;;;;;5.35;4.40;;;16.60;46.60;;;;;;4975542;28;20241;-82
2023/03/15 02:34:16;;;;;;;5.72;4.60;;;16.60;46.50;;;;;;4975547;28;20252;-82
2023/03/15 02:36:42;;;;;;;7.38;4.88;;;16.60;46.50;;;;;;4975332;28;20262;-82
2023/03/15 02:39:14;;;;;;;6.25;4.30;;;16.60;46.50;;;;;;4976898;28;20234;-82
2023/03/15 02:41:42;;;;;;;6.35;4.40;;;16.50;46.50;;;;;;4978005;28;20201;-82
2023/03/15 02:44:12;;;;;;;4.80;4.03;;;16.50;46.50;;;;;;4983869;28;20206;-82
2023/03/15 02:46:40;;;;;;;4.55;4.03;;;16.40;46.30;;;;;;4981117;28;20321;-82
2023/03/15 02:49:07;;;;;;;5.53;4.38;;;16.50;46.50;;;;;;4979814;28;20198;-82
2023/03/15 02:51:34;;;;;;;5.60;4.20;;;16.50;46.50;;;;;;4979285;28;20209;-82
2023/03/15 02:54:01;;;;;;;4.70;3.88;;;16.50;46.60;;;;;;4978425;28;20268;-82
2023/03/15 02:56:32;;;;;;;4.82;4.20;;;16.40;46.50;;;;;;4977843;28;20232;-82
2023/03/15 02:59:00;;;;;;;4.60;4.07;;;16.40;46.50;;;;;;4977834;28;20293;-82
2023/03/15 03:01:31;;;;;;;5.97;4.00;;;16.40;46.50;;;;;;4976852;28;20253;-82
2023/03/15 03:03:59;;;;;;;5.05;3.80;;;16.30;46.40;;;;;;4975123;28;20652;-82
2023/03/15 03:06:26;;;;;;;4.70;4.00;;;16.30;46.50;;;;;;4975234;28;20222;-82
2023/03/15 03:08:54;;;;;;;5.47;3.88;;;16.30;46.50;;;;;;4974510;28;20202;-82
2023/03/15 03:11:21;;;;;;;4.72;3.70;;;16.30;46.50;;;;;;4974417;28;20202;-82
2023/03/15 03:13:50;;;;;;;5.85;3.70;;;16.30;46.50;;;;;;4974240;28;20233;-82
2023/03/15 03:16:21;;;;;;;4.47;3.63;;;16.30;46.70;;;;;;4973941;28;20232;-82
2023/03/15 03:18:50;;;;;;;5.00;3.75;;;16.20;46.50;;;;;;4958610;28;20645;-82
2023/03/15 03:21:19;;;;;;;5.40;3.63;;;16.20;46.70;;;;;;4974568;28;20241;-82
2023/03/15 03:23:46;;;;;;;4.07;3.65;;;16.20;46.50;;;;;;4974316;28;20198;-82
2023/03/15 03:26:15;;;;;;;4.18;3.55;;;16.20;46.80;;;;;;4974612;28;20252;-82
2023/03/15 03:28:45;;;;;;;3.90;3.25;;;16.20;46.70;;;;;;4974441;28;20252;-82
2023/03/15 03:31:18;;;;;;;5.68;3.58;;;16.10;46.50;;;;;;4974385;28;20280;-82
2023/03/15 03:33:46;;;;;;;4.50;3.80;;;16.10;46.50;;;;;;4975148;28;20201;-81
2023/03/15 03:36:13;;;;;;;3.95;3.33;;;16.10;46.50;;;;;;4974675;28;20222;-81
2023/03/15 03:38:42;;;;;;;3.70;3.30;;;16.10;46.60;;;;;;4974649;28;20213;-81
2023/03/15 03:41:10;;;;;;;4.00;3.15;;;16.10;46.80;;;;;;4974508;28;20229;-81
2023/03/15 03:43:38;;;;;;;4.55;3.38;;;16.10;46.80;;;;;;4975085;28;20202;-81
2023/03/15 03:46:05;;;;;;;4.53;3.50;;;16.00;46.70;;;;;;4974652;28;20730;-81
2023/03/15 03:48:36;;;;;;;4.10;3.08;;;16.00;46.60;;;;;;4975586;28;20198;-81
2023/03/15 03:51:03;;;;;;;5.85;3.72;;;16.00;46.50;;;;;;4975209;28;20194;-81
2023/03/15 03:53:30;;;;;;;4.70;3.55;;;16.00;46.90;;;;;;4976661;28;20514;-81
2023/03/15 03:56:02;;;;;;;3.95;2.90;;;16.00;46.70;;;;;;4976143;28;20727;-81
2023/03/15 03:58:29;;;;;;;4.90;3.30;;;16.00;46.70;;;;;;4978599;28;20190;-81
2023/03/15 04:01:03;;;;;;;4.82;3.25;;;16.00;46.90;;;;;;4977689;28;20297;-81
2023/03/15 04:03:32;;;;;;;3.50;3.20;;;15.90;46.60;;;;;;4978403;28;20194;-81
2023/03/15 04:06:07;;;;;;;3.58;3.00;;;15.90;46.90;;;;;;4977566;28;20727;-81
2023/03/15 04:08:39;;;;;;;5.93;3.40;;;15.90;46.70;;;;;;4978499;28;20190;-81
2023/03/15 04:11:10;;;;;;;4.65;3.13;;;15.90;46.70;;;;;;4978327;28;20581;-81
2023/03/15 04:13:39;;;;;;;4.20;3.20;;;15.90;46.90;;;;;;4979219;28;20683;-81
2023/03/15 04:16:08;;;;;;;3.42;3.13;;;15.90;46.90;;;;;;4978919;28;20226;-81
2023/03/15 04:18:49;;;;;;;4.32;3.05;;;15.80;46.90;;;;;;4964744;28;20194;-81
2023/03/15 04:21:21;;;;;;;3.17;2.88;;;15.80;46.90;;;;;;4963174;28;20222;-81
2023/03/15 04:23:52;;;;;;;3.88;3.00;;;15.80;46.90;;;;;;4978960;28;20190;-81
2023/03/15 04:26:56;;;;;;;3.53;2.78;;;15.80;47.30;;;;;;4947486;28;20222;-81
2023/03/15 04:29:36;;;;;;;4.15;3.10;;;15.80;47.30;;;;;;4979046;28;20549;-81
2023/03/15 04:32:19;;;;;;;3.70;2.78;;;15.70;47.20;;;;;;4964703;28;20209;-81
2023/03/15 04:35:05;;;;;;;3.95;3.08;;;15.80;47.10;;;;;;4978168;28;20269;-81
2023/03/15 04:37:41;;;;;;;3.13;2.83;;;15.80;46.90;;;;;;4977947;28;20206;-81
2023/03/15 04:40:28;;;;;;;4.20;2.70;;;15.80;46.90;;;;;;4978125;28;20220;-81
2023/03/15 04:43:12;;;;;;;3.55;2.55;;;15.80;47.00;;;;;;4977547;28;20193;-81
2023/03/15 04:45:50;;;;;;;3.85;2.72;;;15.80;46.90;;;;;;4976744;28;20696;-81
2023/03/15 04:48:41;;;;;;;2.75;2.38;;;15.80;46.90;;;;;;4974568;28;20214;-81
2023/03/15 04:51:20;;;;;;;3.65;2.70;;;15.90;46.80;;;;;;4978272;28;20249;-81
2023/03/15 04:54:16;;;;;;;3.88;2.90;;;15.90;46.70;;;;;;4977562;28;20274;-81
2023/03/15 04:57:22;;;;;;;4.05;2.90;;;15.80;46.80;;;;;;4968385;28;20225;-81
2023/03/15 05:00:10;;;;;;;3.05;2.35;;;15.90;46.60;;;;;;4976551;28;20281;-81
2023/03/15 05:02:58;;;;;;;3.33;2.80;;;15.90;47.00;;;;;;4976854;28;20190;-81
2023/03/15 05:05:39;;;;;;;3.60;2.78;;;15.90;46.70;;;;;;4976316;28;20214;-81
2023/03/15 05:08:29;;;;;;;4.63;2.70;;;15.90;46.70;;;;;;4941191;28;20206;-81
2023/03/15 05:11:17;;;;;;;3.22;2.60;;;15.90;46.70;;;;;;4947425;28;20198;-81
2023/03/15 05:13:50;;;;;;;3.95;2.80;;;15.90;46.70;;;;;;4977247;28;20183;-82
2023/03/15 05:16:38;;;;;;;2.92;2.63;;;15.90;46.80;;;;;;4978886;28;20221;-82
2023/03/15 05:19:28;;;;;;;3.65;2.67;;;15.90;47.00;;;;;;4941506;28;20268;-82
2023/03/15 05:22:13;;;;;;;3.45;2.55;;;15.90;46.90;;;;;;4977935;28;20566;-82
2023/03/15 05:25:09;;;;;;;3.85;2.65;;;15.90;46.80;;;;;;4976501;28;20190;-82
2023/03/15 05:27:52;;;;;;;4.10;2.58;;;15.90;46.70;;;;;;4977790;28;20198;-81
2023/03/15 05:30:27;;;;;;;2.65;2.45;;;15.90;46.50;;;;;;4977083;28;20269;-81
2023/03/15 05:33:12;;;;;;;2.80;2.42;;;15.90;46.90;;;;;;4988001;28;20214;-81
2023/03/15 05:35:46;;;;;;;4.13;2.65;;;15.90;46.60;;;;;;4989564;28;20244;-80
2023/03/15 05:38:33;;;;;;;3.00;2.50;;;15.90;47.50;;;;;;4980440;28;20277;-82
2023/03/15 05:41:20;;;;;;;4.03;2.72;;;15.80;46.90;;;;;;4988525;28;20751;-83
2023/03/15 05:44:07;;;;;;;3.22;2.67;;;15.90;46.70;;;;;;4983653;28;20257;-83
2023/03/15 05:46:52;;;;;;;3.72;2.70;;;15.90;46.70;;;;;;4976704;28;20224;-83
2023/03/15 05:49:39;;;;;;;3.97;2.40;;;15.90;46.40;;;;;;4981957;28;20258;-83
2023/03/15 05:52:26;;;;;;;2.78;2.33;;;15.90;46.50;;;;;;4963690;28;20543;-82
2023/03/15 05:55:15;;;;;;;2.45;2.20;;;15.90;46.40;;;;;;4983325;28;20202;-83
2023/03/15 05:57:57;;;;;;;3.42;2.60;;;16.00;46.60;;;;;;4982917;28;20201;-83
2023/03/15 06:00:37;;;;;;;3.58;2.30;;;16.00;46.50;;;;;;4981746;28;20277;-83
2023/03/15 06:03:15;;;;;;;3.10;2.40;;;16.00;46.30;;;;;;4981678;28;20210;-83
2023/03/15 06:05:53;;;;;;;3.33;2.15;;;16.00;46.90;;;;;;4982712;28;20289;-83
2023/03/15 06:08:29;;;;;;;3.75;2.55;;;16.00;46.20;;;;;;4982395;28;20244;-83
2023/03/15 06:10:56;;;;;;;2.50;2.13;;;16.10;46.20;;;;;;4975975;28;20257;-83
2023/03/15 06:13:23;;;;;;;2.95;2.22;;;16.00;46.30;;;;;;4976163;28;20194;-83
2023/03/15 06:15:51;;;;;;;2.97;2.30;;;16.10;46.20;;;;;;4975769;28;20257;-81
2023/03/15 06:18:19;;;;;;;3.00;2.20;;;16.10;46.50;;;;;;4959240;28;20284;-82
2023/03/15 06:20:48;;;;;;;2.92;2.28;;;16.20;46.40;;;;;;4974701;28;20221;-82
2023/03/15 06:23:18;;;;;;;2.78;2.20;;;16.10;46.40;;;;;;4975228;28;20205;-82
2023/03/15 06:25:47;;;;;;;2.90;2.17;;;16.20;46.30;;;;;;4975442;28;20218;-82
2023/03/15 06:28:15;;;;;;;3.45;2.30;;;16.20;46.60;;;;;;4975713;28;20199;-82
2023/03/15 06:30:48;;;;;;;2.90;2.17;;;16.20;46.30;;;;;;4974996;28;20202;-82
2023/03/15 06:33:16;;;;;;;3.13;2.13;;;16.20;46.00;;;;;;4959355;28;20194;-82
2023/03/15 06:35:45;;;;;;;4.55;2.50;;;16.30;46.70;;;;;;4975091;28;20224;-82
2023/03/15 06:38:14;;;;;;;3.17;2.22;;;16.30;46.10;;;;;;4975671;28;20210;-81
2023/03/15 06:40:42;;;;;;;3.70;2.30;;;16.30;46.00;;;;;;4975523;28;20206;-81
2023/03/15 06:43:17;;;;;;;3.40;2.22;;;16.30;46.00;;;;;;4975835;28;20285;-83
2023/03/15 06:45:44;;;;;;;3.80;2.50;;;16.30;45.40;;;;;;4975023;28;20229;-83
2023/03/15 06:48:12;;;;;;;3.45;2.30;;;16.30;45.40;;;;;;4975916;28;20205;-83
2023/03/15 06:50:41;;;;;;;2.53;2.08;;;16.30;45.10;;;;;;4976321;28;20202;-83
2023/03/15 06:53:08;;;;;;;2.28;2.08;;;16.30;44.90;;;;;;4975404;28;20688;-83
2023/03/15 06:55:35;;;;;;;3.20;2.15;;;16.40;44.90;;;;;;4975149;28;20222;-83
2023/03/15 06:58:04;;;;;;;2.58;2.13;;;16.40;45.20;;;;;;4958843;28;20244;-83
2023/03/15 07:00:32;;;;;;;2.63;1.98;;;16.40;45.10;;;;;;4975005;28;20202;-83
2023/03/15 07:02:59;;;;;;;3.40;2.20;;;16.50;45.00;;;;;;4974946;28;20206;-83
2023/03/15 07:05:26;;;;;;;4.00;2.40;;;16.50;44.60;;;;;;4974978;28;20209;-83
2023/03/15 07:07:53;;;;;;;3.38;1.80;;;16.50;45.10;;;;;;4975152;28;20637;-83
2023/03/15 07:10:21;;;;;;;4.10;2.20;;;16.60;44.50;;;;;;4977914;28;20194;-83
2023/03/15 07:12:48;;;;;;;2.15;1.95;;;16.80;44.30;;;;;;4982151;28;20229;-83
2023/03/15 07:15:17;;;;;;;3.67;2.10;;;16.80;44.00;;;;;;4981948;28;20198;-83
2023/03/15 07:17:44;;;;;;;2.55;1.90;;;17.00;43.60;;;;;;4974778;28;20202;-83
2023/03/15 07:20:12;;;;;;;3.20;2.03;;;17.20;43.60;;;;;;4958439;28;20233;-83
2023/03/15 07:22:39;;;;;;;3.60;1.95;;;17.20;43.60;;;;;;4975138;28;20218;-83
2023/03/15 07:25:08;;;;;;;2.92;1.80;;;17.40;43.20;;;;;;4976307;28;20212;-83
2023/03/15 07:27:35;;;;;;;3.45;1.80;;;17.50;42.70;;;;;;4977921;28;20225;-83
2023/03/15 07:30:03;;;;;;;2.60;2.15;;;17.70;42.80;;;;;;4979465;28;20212;-83
2023/03/15 07:32:31;;;;;;;2.70;1.80;;;17.90;42.30;;;;;;4963081;28;20266;-83
2023/03/15 07:34:59;;;;;;;4.00;1.90;;;17.90;42.10;;;;;;4978879;28;20202;-83
2023/03/15 07:37:27;;;;;;;4.40;2.20;;;18.00;42.10;;;;;;4978957;28;20253;-83
2023/03/15 07:39:54;;;;;;;2.78;1.90;;;18.20;41.90;;;;;;4978449;28;20195;-83
2023/03/15 07:42:21;;;;;;;3.03;1.80;;;18.30;41.40;;;;;;4980806;28;20225;-83
2023/03/15 07:44:51;;;;;;;3.30;1.88;;;18.40;41.60;;;;;;4968697;28;20190;-83
2023/03/15 07:47:19;;;;;;;4.43;2.00;;;18.60;41.40;;;;;;4985850;28;20268;-83
2023/03/15 07:49:48;;;;;;;3.78;2.10;;;18.80;41.20;;;;;;4985393;28;20194;-83
2023/03/15 07:52:15;;;;;;;2.45;1.65;;;18.90;41.10;;;;;;4982019;28;20203;-83
2023/03/15 07:54:42;;;;;;;3.13;1.75;;;19.00;41.10;;;;;;4982675;28;20202;-83
2023/03/15 07:57:10;;;;;;;3.25;1.90;;;19.20;40.70;;;;;;4965563;28;20226;-83
2023/03/15 07:59:37;;;;;;;3.65;1.90;;;19.30;40.50;;;;;;4981365;28;20202;-83
2023/03/15 08:02:04;;;;;;;3.53;1.65;;;19.50;40.50;;;;;;4981498;28;20242;-83
2023/03/15 08:04:32;;;;;;;3.83;1.85;;;19.70;40.30;;;;;;4981491;28;20247;-83
2023/03/15 08:07:01;;;;;;;2.85;1.67;;;19.80;40.00;;;;;;4964837;28;20218;-83
2023/03/15 08:09:28;;;;;;;2.38;1.65;;;20.00;40.20;;;;;;4965157;28;20210;-83
2023/03/15 08:11:55;;;;;;;3.08;1.80;;;20.10;39.90;;;;;;4980502;28;20661;-83
2023/03/15 08:14:23;;;;;;;1.85;1.65;;;20.20;39.90;;;;;;4980879;28;20199;-83
2023/03/15 08:16:50;;;;;;;2.83;1.75;;;20.30;39.70;;;;;;4980437;28;20222;-83
2023/03/15 08:19:18;;;;;;;2.50;1.70;;;20.50;39.70;;;;;;4980482;28;20665;-83
2023/03/15 08:21:45;;;;;;;2.38;1.60;;;20.50;39.40;;;;;;4981299;28;20226;-83
2023/03/15 08:24:14;;;;;;;2.17;1.67;;;20.70;39.40;;;;;;4977882;28;20209;-83
2023/03/15 08:26:42;;;;;;;2.30;1.60;;;20.70;39.10;;;;;;4961314;28;20217;-83
2023/03/15 08:29:09;;;;;;;3.58;1.77;;;20.80;39.10;;;;;;4977401;28;20198;-83
2023/03/15 08:31:36;;;;;;;2.10;1.70;;;20.90;39.00;;;;;;4977609;28;20202;-83
2023/03/15 08:34:03;;;;;;;2.80;1.85;;;21.00;38.90;;;;;;4978436;28;20198;-83
2023/03/15 08:36:31;;;;;;;2.50;1.60;;;21.00;38.80;;;;;;4979995;28;20704;-83
2023/03/15 08:38:58;;;;;;;1.92;1.52;;;21.10;38.70;;;;;;4964039;28;20214;-83
2023/03/15 08:41:27;;;;;;;1.85;1.50;;;21.20;38.60;;;;;;4979793;28;20281;-83
2023/03/15 08:43:54;;;;;;;2.13;1.58;;;21.20;38.40;;;;;;4978358;28;20347;-83
2023/03/15 08:46:21;;;;;;;3.42;1.85;;;21.30;38.60;;;;;;4978256;28;20226;-83
2023/03/15 08:48:48;;;;;;;2.63;1.63;;;21.20;38.50;;;;;;4977075;28;20298;-83
2023/03/15 08:51:15;;;;;;;1.88;1.67;;;21.20;38.60;;;;;;4977378;28;20209;-83
2023/03/15 08:53:42;;;;;;;2.88;1.58;;;21.20;38.50;;;;;;4962080;28;20198;-83
2023/03/15 08:56:09;;;;;;;2.33;1.75;;;21.30;38.60;;;;;;4977640;28;20229;-83
2023/03/15 08:58:38;;;;;;;2.45;1.73;;;21.30;38.50;;;;;;4977376;28;20206;-83
2023/03/15 09:01:05;;;;;;;1.90;1.58;;;21.30;38.40;;;;;;4976902;28;20210;-83
2023/03/15 09:03:33;;;;;;;2.28;1.65;;;21.40;38.40;;;;;;4977192;28;20222;-83
2023/03/15 09:06:00;;;;;;;1.58;1.48;;;21.40;38.10;;;;;;4977721;28;20305;-83
2023/03/15 09:08:27;;;;;;;2.03;1.55;;;21.40;38.20;;;;;;4977374;28;20294;-83
2023/03/15 09:10:55;;;;;;;1.83;1.38;;;21.40;38.30;;;;;;4960990;28;20213;-83
2023/03/15 09:13:23;;;;;;;1.60;1.40;;;21.30;38.30;;;;;;4960634;28;20226;-83
2023/03/15 09:15:52;;;;;;;1.95;1.60;;;21.20;38.30;;;;;;4976783;28;20222;-83
2023/03/15 09:18:19;;;;;;;1.58;1.33;;;21.20;38.60;;;;;;4976788;28;20202;-83
2023/03/15 09:20:46;;;;;;;2.72;1.50;;;21.10;38.40;;;;;;4976764;28;20216;-83
2023/03/15 09:23:14;;;;;;;1.90;1.42;;;21.10;38.50;;;;;;4977383;28;20684;-83
2023/03/15 09:25:41;;;;;;;1.98;1.35;;;21.10;38.50;;;;;;4977850;28;20222;-84
2023/03/15 09:28:10;;;;;;;2.47;1.48;;;21.00;38.50;;;;;;4978477;28;20315;-84
2023/03/15 09:30:37;;;;;;;1.55;1.45;;;21.10;38.60;;;;;;4977504;28;20608;-84
2023/03/15 09:33:06;;;;;;;1.88;1.40;;;21.00;38.50;;;;;;4976623;28;20198;-84
2023/03/15 09:35:33;;;;;;;2.78;1.42;;;21.00;38.50;;;;;;4977345;28;20242;-84
2023/03/15 09:38:02;;;;;;;1.90;1.38;;;21.00;39.20;;;;;;4978306;28;20210;-84
2023/03/15 09:40:30;;;;;;;1.40;1.30;;;20.90;38.50;;;;;;4977134;28;20212;-84
2023/03/15 09:43:06;;;;;;;1.38;1.20;;;20.90;38.60;;;;;;4977024;28;20234;-84
2023/03/15 09:45:47;;;;;;;1.48;1.38;;;20.90;38.60;;;;;;4960213;28;20213;-84
2023/03/15 09:48:18;;;;;;;2.40;1.60;;;20.80;38.50;;;;;;4977155;28;20202;-84
2023/03/15 09:50:46;;;;;;;3.50;1.40;;;20.80;38.40;;;;;;4977249;28;20632;-84
2023/03/15 09:53:14;;;;;;;2.70;1.45;;;20.80;38.40;;;;;;4959549;28;20198;-84
2023/03/15 09:55:41;;;;;;;1.60;1.30;;;20.80;38.20;;;;;;4976323;28;20222;-84
2023/03/15 09:58:11;;;;;;;2.65;1.60;;;20.70;38.20;;;;;;4976007;28;20292;-84
2023/03/15 10:00:38;;;;;;;2.60;1.42;;;20.70;38.00;;;;;;4976842;28;20198;-84
2023/03/15 10:03:08;;;;;;;1.50;1.27;;;20.70;37.90;;;;;;4976440;28;20221;-84
2023/03/15 10:05:40;;;;;;;1.85;1.40;;;20.60;38.10;;;;;;4976123;28;20229;-84
2023/03/15 10:08:10;;;;;;;1.98;1.27;;;20.60;37.80;;;;;;4976584;28;20201;-84
2023/03/15 10:10:39;;;;;;;1.98;1.40;;;20.60;38.20;;;;;;4976003;28;20611;-84
2023/03/15 10:13:14;;;;;;;1.75;1.40;;;20.50;37.60;;;;;;4975620;28;20195;-84
2023/03/15 10:15:44;;;;;;;1.55;1.30;;;20.40;37.70;;;;;;4976863;28;20692;-84
2023/03/15 10:18:26;;;;;;;1.65;1.20;;;20.50;37.70;;;;;;4959576;28;20234;-83
2023/03/15 10:20:58;;;;;;;1.95;1.30;;;20.50;37.60;;;;;;4975306;28;20696;-83
2023/03/15 10:23:28;;;;;;;2.25;1.50;;;20.40;37.70;;;;;;4976956;28;20203;-83
2023/03/15 10:25:58;;;;;;;1.65;1.30;;;20.40;37.80;;;;;;4975983;28;20590;-83
2023/03/15 10:28:26;;;;;;;2.25;1.30;;;20.40;37.50;;;;;;4975490;28;20205;-83
2023/03/15 10:30:54;;;;;;;1.65;1.10;;;20.40;37.80;;;;;;4976044;28;20280;-83
2023/03/15 10:33:26;;;;;;;2.45;1.50;;;20.40;37.40;;;;;;4977060;28;20205;-83
2023/03/15 10:35:54;;;;;;;1.75;1.10;;;20.40;37.60;;;;;;4976776;28;20222;-83
2023/03/15 10:38:23;;;;;;;1.98;1.42;;;20.40;37.40;;;;;;4976535;28;20279;-84
2023/03/15 10:40:52;;;;;;;1.50;1.27;;;20.30;37.40;;;;;;4976744;28;20198;-84
2023/03/15 10:43:20;;;;;;;2.03;1.25;;;20.40;38.00;;;;;;4976811;28;20217;-84
2023/03/15 10:45:58;;;;;;;1.40;1.30;;;20.40;37.40;;;;;;4975591;28;20228;-84
2023/03/15 10:48:25;;;;;;;1.60;1.08;;;20.40;37.80;;;;;;4975379;28;20194;-84
2023/03/15 10:50:54;;;;;;;2.10;1.13;;;20.30;37.30;;;;;;4976782;28;20194;-84
2023/03/15 10:53:24;;;;;;;1.38;1.27;;;20.40;37.60;;;;;;4977061;28;20233;-84
2023/03/15 10:55:58;;;;;;;1.67;1.13;;;20.30;37.90;;;;;;4975806;28;20294;-84
2023/03/15 10:58:27;;;;;;;1.52;1.40;;;20.30;37.40;;;;;;4976270;28;20194;-84
2023/03/15 11:00:58;;;;;;;1.73;1.25;;;20.30;37.70;;;;;;4976920;28;20205;-84
2023/03/15 11:03:26;;;;;;;2.78;1.20;;;20.30;37.70;;;;;;4974797;28;20213;-84
2023/03/15 11:05:55;;;;;;;1.50;1.30;;;20.30;37.80;;;;;;4958813;28;20226;-84
2023/03/15 11:08:24;;;;;;;1.67;1.25;;;20.40;37.70;;;;;;4975373;28;20198;-84
2023/03/15 11:10:56;;;;;;;2.78;1.23;;;20.40;37.60;;;;;;4974975;28;20202;-84
2023/03/15 11:13:24;;;;;;;1.27;1.10;;;20.40;37.50;;;;;;4974408;28;20209;-84
2023/03/15 11:16:00;;;;;;;1.23;1.10;;;20.40;37.60;;;;;;4974525;28;20345;-84
2023/03/15 11:18:29;;;;;;;1.50;1.10;;;20.40;37.60;;;;;;4974469;28;20201;-84
2023/03/15 11:20:56;;;;;;;1.40;1.30;;;20.40;37.30;;;;;;4974757;28;20565;-84
2023/03/15 11:23:27;;;;;;;1.52;1.20;;;20.40;37.70;;;;;;4974807;28;20252;-84
2023/03/15 11:25:54;;;;;;;1.63;1.23;;;20.30;37.40;;;;;;4975468;28;20218;-84
2023/03/15 11:28:23;;;;;;;1.55;1.08;;;20.30;38.00;;;;;;4975068;28;20225;-84
2023/03/15 11:30:50;;;;;;;1.42;1.10;;;20.20;38.40;;;;;;4974839;28;20206;-84
2023/03/15 11:33:27;;;;;;;1.45;1.30;;;20.10;37.90;;;;;;4974846;28;20627;-84
2023/03/15 11:35:53;;;;;;;1.45;1.30;;;20.00;38.40;;;;;;4985165;28;20222;-84
2023/03/15 11:38:26;;;;;;;1.45;1.27;;;19.90;38.40;;;;;;4995486;28;20201;-84
2023/03/15 11:40:55;;;;;;;1.92;1.13;;;19.90;38.40;;;;;;4996676;28;20209;-84
2023/03/15 11:43:24;;;;;;;1.95;1.05;;;19.90;38.50;;;;;;4987992;28;20214;-84
2023/03/15 11:45:55;;;;;;;2.50;1.10;;;19.90;38.30;;;;;;4980721;28;20222;-84
2023/03/15 11:48:47;;;;;;;1.50;1.20;;;19.90;38.50;;;;;;4975753;28;20292;-84
2023/03/15 11:51:14;;;;;;;1.55;1.20;;;19.90;38.50;;;;;;4976411;28;20269;-84
2023/03/15 11:53:45;;;;;;;1.80;1.23;;;19.90;37.90;;;;;;4976700;28;20253;-84
2023/03/15 11:56:21;;;;;;;1.55;1.17;;;19.90;37.90;;;;;;4975106;28;20571;-84
2023/03/15 11:59:02;;;;;;;1.35;1.00;;;19.90;37.50;;;;;;4976299;28;20194;-84
2023/03/15 12:01:30;;;;;;;2.22;1.10;;;19.90;37.50;;;;;;4977831;28;20197;-84
2023/03/15 12:04:45;;;;;;;1.55;1.00;;;20.00;37.70;;;;;;4979130;28;20218;-84
2023/03/15 12:07:37;;;;;;;1.10;1.02;;;20.00;37.60;;;;;;4977904;28;20218;-84
2023/03/15 12:10:31;;;;;;;1.35;1.10;;;20.00;37.50;;;;;;4969007;28;20609;-84
2023/03/15 12:12:59;;;;;;;1.73;1.25;;;20.00;37.60;;;;;;4978922;28;20218;-84
2023/03/15 12:15:47;;;;;;;1.17;1.00;;;20.00;37.40;;;;;;4978890;28;20204;-84
2023/03/15 12:18:16;;;;;;;1.15;1.05;;;19.90;37.10;;;;;;4981730;28;20202;-84
2023/03/15 12:20:45;;;;;;;0.82;0.82;;;19.90;36.90;;;;;;4978703;28;20202;-84
2023/03/15 12:23:22;;;;;;;1.52;1.20;;;19.90;37.10;;;;;;4962784;28;20210;-84
2023/03/15 12:25:53;;;;;;;1.20;0.95;;;19.90;37.10;;;;;;4978992;28;20229;-84
2023/03/15 12:28:22;;;;;;;1.40;1.17;;;19.90;37.00;;;;;;4978210;28;20229;-84
2023/03/15 12:30:53;;;;;;;1.40;0.98;;;19.90;37.00;;;;;;4978403;28;20198;-83
2023/03/15 12:33:21;;;;;;;1.45;1.10;;;19.90;37.10;;;;;;4962026;28;20178;-83
2023/03/15 12:35:48;;;;;;;1.65;1.10;;;19.90;37.20;;;;;;4962334;28;20249;-83
2023/03/15 12:38:16;;;;;;;0.82;0.82;;;19.80;37.10;;;;;;4978141;28;20214;-83
2023/03/15 12:40:52;;;;;;;1.10;0.98;;;19.90;37.30;;;;;;4978181;28;20202;-83
2023/03/15 12:43:36;;;;;;;2.67;1.10;;;19.80;36.80;;;;;;4978370;28;20213;-83
2023/03/15 12:46:05;;;;;;;1.15;0.90;;;19.90;37.10;;;;;;4978747;28;20221;-83
2023/03/15 12:48:34;;;;;;;1.17;1.08;;;19.90;37.10;;;;;;4977463;28;20213;-83
2023/03/15 12:51:05;;;;;;;2.40;0.98;;;19.90;37.20;;;;;;4980332;28;20198;-83
2023/03/15 12:53:51;;;;;;;1.20;0.90;;;19.90;37.10;;;;;;4982774;28;20652;-83
2023/03/15 12:56:42;;;;;;;1.33;1.10;;;19.90;36.70;;;;;;4962060;28;20229;-83
2023/03/15 12:59:40;;;;;;;1.50;1.10;;;19.90;37.20;;;;;;4977433;28;20665;-83
2023/03/15 13:02:30;;;;;;;1.08;0.93;;;19.90;37.20;;;;;;4974695;28;20221;-83
2023/03/15 13:05:02;;;;;;;0.85;0.85;;;19.90;37.00;;;;;;4976820;28;20216;-83
2023/03/15 13:07:35;;;;;;;1.23;1.10;;;19.90;37.10;;;;;;4945268;28;20233;-83